sensor_id;sensor_type;location;lat;lon;timestamp;P1;durP1;ratioP1;P2;durP2;ratioP2
2011;SDS011;1009;51.436;6.972;2023-01-10T00:00:07;24.60;;;13.40;;
2011;SDS011;1009;51.436;6.972;2023-01-10T00:02:34;23.87;;;12.70;;
2011;SDS011;1009;51.436;6.972;2023-01-10T00:05:01;22.60;;;12.30;;
2011;SDS011;1009;51.436;6.972;2023-01-10T00:07:28;20.90;;;12.40;;
2011;SDS011;1009;51.436;6.972;2023-01-10T00:09:56;19.30;;;13.83;;
2011;SDS011;1009;51.436;6.972;2023-01-10T00:12:23;22.63;;;14.10;;
2011;SDS011;1009;51.436;6.972;2023-01-10T00:15:07;20.63;;;12.93;;
2011;SDS011;1009;51.436;6.972;2023-01-10T00:17:34;16.37;;;12.33;;
2011;SDS011;1009;51.436;6.972;2023-01-10T00:20:01;20.93;;;11.97;;
2011;SDS011;1009;51.436;6.972;2023-01-10T00:22:28;21.13;;;13.53;;
2011;SDS011;1009;51.436;6.972;2023-01-10T00:24:56;19.53;;;12.70;;
2011;SDS011;1009;51.436;6.972;2023-01-10T00:27:23;20.83;;;12.60;;
2011;SDS011;1009;51.436;6.972;2023-01-10T00:29:49;21.77;;;13.17;;
2011;SDS011;1009;51.436;6.972;2023-01-10T00:32:17;22.47;;;13.60;;
2011;SDS011;1009;51.436;6.972;2023-01-10T00:34:47;24.40;;;12.63;;
2011;SDS011;1009;51.436;6.972;2023-01-10T00:37:14;22.90;;;13.60;;
2011;SDS011;1009;51.436;6.972;2023-01-10T00:39:41;20.63;;;11.20;;
2011;SDS011;1009;51.436;6.972;2023-01-10T00:42:09;23.83;;;12.40;;
2011;SDS011;1009;51.436;6.972;2023-01-10T00:44:54;18.83;;;10.80;;
2011;SDS011;1009;51.436;6.972;2023-01-10T00:47:20;18.47;;;10.63;;
2011;SDS011;1009;51.436;6.972;2023-01-10T00:49:47;18.43;;;11.23;;
2011;SDS011;1009;51.436;6.972;2023-01-10T00:52:14;24.30;;;11.47;;
2011;SDS011;1009;51.436;6.972;2023-01-10T00:54:40;21.27;;;11.00;;
2011;SDS011;1009;51.436;6.972;2023-01-10T00:57:07;15.50;;;9.60;;
2011;SDS011;1009;51.436;6.972;2023-01-10T00:59:35;21.77;;;9.60;;
2011;SDS011;1009;51.436;6.972;2023-01-10T01:02:02;17.97;;;10.30;;
2011;SDS011;1009;51.436;6.972;2023-01-10T01:04:29;18.10;;;9.57;;
2011;SDS011;1009;51.436;6.972;2023-01-10T01:06:58;19.20;;;9.50;;
2011;SDS011;1009;51.436;6.972;2023-01-10T01:09:25;28.10;;;11.00;;
2011;SDS011;1009;51.436;6.972;2023-01-10T01:11:52;18.33;;;8.93;;
2011;SDS011;1009;51.436;6.972;2023-01-10T01:14:20;14.20;;;9.60;;
2011;SDS011;1009;51.436;6.972;2023-01-10T01:16:48;17.77;;;10.03;;
2011;SDS011;1009;51.436;6.972;2023-01-10T01:19:15;13.70;;;8.80;;
2011;SDS011;1009;51.436;6.972;2023-01-10T01:21:41;15.53;;;8.70;;
2011;SDS011;1009;51.436;6.972;2023-01-10T01:24:08;15.90;;;8.20;;
2011;SDS011;1009;51.436;6.972;2023-01-10T01:26:35;15.87;;;8.10;;
2011;SDS011;1009;51.436;6.972;2023-01-10T01:29:03;15.70;;;8.60;;
2011;SDS011;1009;51.436;6.972;2023-01-10T01:31:30;14.20;;;8.23;;
2011;SDS011;1009;51.436;6.972;2023-01-10T01:33:58;14.37;;;7.90;;
2011;SDS011;1009;51.436;6.972;2023-01-10T01:36:25;18.10;;;7.97;;
2011;SDS011;1009;51.436;6.972;2023-01-10T01:38:52;24.07;;;8.10;;
2011;SDS011;1009;51.436;6.972;2023-01-10T01:41:22;12.93;;;7.23;;
2011;SDS011;1009;51.436;6.972;2023-01-10T01:44:09;18.77;;;7.20;;
2011;SDS011;1009;51.436;6.972;2023-01-10T01:46:39;13.77;;;7.27;;
2011;SDS011;1009;51.436;6.972;2023-01-10T01:49:12;17.73;;;8.00;;
2011;SDS011;1009;51.436;6.972;2023-01-10T01:51:43;13.87;;;6.30;;
2011;SDS011;1009;51.436;6.972;2023-01-10T01:54:14;19.00;;;6.60;;
2011;SDS011;1009;51.436;6.972;2023-01-10T01:56:43;13.43;;;5.77;;
2011;SDS011;1009;51.436;6.972;2023-01-10T01:59:16;11.70;;;5.57;;
2011;SDS011;1009;51.436;6.972;2023-01-10T02:01:46;13.53;;;6.60;;
2011;SDS011;1009;51.436;6.972;2023-01-10T02:04:17;11.70;;;6.17;;
2011;SDS011;1009;51.436;6.972;2023-01-10T02:06:45;14.23;;;7.07;;
2011;SDS011;1009;51.436;6.972;2023-01-10T02:09:16;11.17;;;5.50;;
2011;SDS011;1009;51.436;6.972;2023-01-10T02:11:47;14.43;;;5.63;;
2011;SDS011;1009;51.436;6.972;2023-01-10T02:14:14;12.57;;;5.60;;
2011;SDS011;1009;51.436;6.972;2023-01-10T02:16:41;15.03;;;5.33;;
2011;SDS011;1009;51.436;6.972;2023-01-10T02:19:10;13.73;;;5.50;;
2011;SDS011;1009;51.436;6.972;2023-01-10T02:21:57;15.83;;;4.83;;
2011;SDS011;1009;51.436;6.972;2023-01-10T02:27:40;17.47;;;5.63;;
2011;SDS011;1009;51.436;6.972;2023-01-10T02:30:41;12.63;;;5.40;;
2011;SDS011;1009;51.436;6.972;2023-01-10T02:33:23;12.70;;;4.77;;
2011;SDS011;1009;51.436;6.972;2023-01-10T02:38:48;15.67;;;4.33;;
2011;SDS011;1009;51.436;6.972;2023-01-10T02:41:25;12.10;;;4.63;;
2011;SDS011;1009;51.436;6.972;2023-01-10T02:43:56;15.07;;;4.47;;
2011;SDS011;1009;51.436;6.972;2023-01-10T02:46:29;14.00;;;4.70;;
2011;SDS011;1009;51.436;6.972;2023-01-10T02:48:59;16.50;;;4.80;;
2011;SDS011;1009;51.436;6.972;2023-01-10T02:51:26;12.03;;;5.20;;
2011;SDS011;1009;51.436;6.972;2023-01-10T02:53:54;13.43;;;4.40;;
2011;SDS011;1009;51.436;6.972;2023-01-10T02:59:38;15.63;;;4.77;;
2011;SDS011;1009;51.436;6.972;2023-01-10T03:02:30;15.03;;;3.93;;
2011;SDS011;1009;51.436;6.972;2023-01-10T03:05:09;10.73;;;3.80;;
2011;SDS011;1009;51.436;6.972;2023-01-10T03:07:41;14.70;;;4.40;;
2011;SDS011;1009;51.436;6.972;2023-01-10T03:10:13;10.93;;;4.73;;
2011;SDS011;1009;51.436;6.972;2023-01-10T03:12:45;14.13;;;4.23;;
2011;SDS011;1009;51.436;6.972;2023-01-10T03:15:17;14.03;;;5.27;;
2011;SDS011;1009;51.436;6.972;2023-01-10T03:17:46;16.77;;;5.73;;
2011;SDS011;1009;51.436;6.972;2023-01-10T03:20:18;13.63;;;5.00;;
2011;SDS011;1009;51.436;6.972;2023-01-10T03:22:46;11.23;;;4.80;;
2011;SDS011;1009;51.436;6.972;2023-01-10T03:25:13;14.20;;;4.47;;
2011;SDS011;1009;51.436;6.972;2023-01-10T03:27:46;11.77;;;5.17;;
2011;SDS011;1009;51.436;6.972;2023-01-10T03:30:17;17.00;;;5.00;;
2011;SDS011;1009;51.436;6.972;2023-01-10T03:32:52;14.80;;;6.23;;
2011;SDS011;1009;51.436;6.972;2023-01-10T03:35:23;14.10;;;5.20;;
2011;SDS011;1009;51.436;6.972;2023-01-10T03:38:00;11.60;;;4.73;;
2011;SDS011;1009;51.436;6.972;2023-01-10T03:40:32;19.17;;;4.97;;
2011;SDS011;1009;51.436;6.972;2023-01-10T03:43:02;18.20;;;6.53;;
2011;SDS011;1009;51.436;6.972;2023-01-10T03:45:53;16.27;;;6.17;;
2011;SDS011;1009;51.436;6.972;2023-01-10T03:48:24;12.97;;;6.13;;
2011;SDS011;1009;51.436;6.972;2023-01-10T03:50:57;13.40;;;5.60;;
2011;SDS011;1009;51.436;6.972;2023-01-10T03:53:25;16.03;;;5.87;;
2011;SDS011;1009;51.436;6.972;2023-01-10T03:55:52;15.23;;;4.83;;
2011;SDS011;1009;51.436;6.972;2023-01-10T03:58:19;10.80;;;5.40;;
2011;SDS011;1009;51.436;6.972;2023-01-10T04:00:45;13.67;;;5.30;;
2011;SDS011;1009;51.436;6.972;2023-01-10T04:03:12;16.37;;;5.90;;
2011;SDS011;1009;51.436;6.972;2023-01-10T04:05:40;10.90;;;5.53;;
2011;SDS011;1009;51.436;6.972;2023-01-10T04:08:08;9.23;;;4.70;;
2011;SDS011;1009;51.436;6.972;2023-01-10T04:10:35;12.10;;;4.97;;
2011;SDS011;1009;51.436;6.972;2023-01-10T04:13:02;15.23;;;4.83;;
2011;SDS011;1009;51.436;6.972;2023-01-10T04:15:29;12.03;;;5.43;;
2011;SDS011;1009;51.436;6.972;2023-01-10T04:17:56;15.33;;;5.57;;
2011;SDS011;1009;51.436;6.972;2023-01-10T04:20:26;11.23;;;4.23;;
2011;SDS011;1009;51.436;6.972;2023-01-10T04:22:53;10.50;;;4.57;;
2011;SDS011;1009;51.436;6.972;2023-01-10T04:25:21;15.17;;;5.10;;
2011;SDS011;1009;51.436;6.972;2023-01-10T04:27:48;12.20;;;4.27;;
2011;SDS011;1009;51.436;6.972;2023-01-10T04:30:16;18.83;;;5.00;;
2011;SDS011;1009;51.436;6.972;2023-01-10T04:32:43;18.27;;;5.47;;
2011;SDS011;1009;51.436;6.972;2023-01-10T04:35:09;16.93;;;6.03;;
2011;SDS011;1009;51.436;6.972;2023-01-10T04:37:36;11.53;;;5.50;;
2011;SDS011;1009;51.436;6.972;2023-01-10T04:40:03;19.47;;;5.60;;
2011;SDS011;1009;51.436;6.972;2023-01-10T04:42:32;18.13;;;4.93;;
2011;SDS011;1009;51.436;6.972;2023-01-10T04:44:59;17.33;;;4.33;;
2011;SDS011;1009;51.436;6.972;2023-01-10T04:47:26;11.50;;;4.63;;
2011;SDS011;1009;51.436;6.972;2023-01-10T04:49:52;14.37;;;4.47;;
2011;SDS011;1009;51.436;6.972;2023-01-10T04:52:19;15.73;;;5.10;;
2011;SDS011;1009;51.436;6.972;2023-01-10T04:54:46;17.20;;;5.37;;
2011;SDS011;1009;51.436;6.972;2023-01-10T04:57:15;15.10;;;5.90;;
2011;SDS011;1009;51.436;6.972;2023-01-10T04:59:49;12.10;;;4.73;;
2011;SDS011;1009;51.436;6.972;2023-01-10T05:02:16;14.33;;;5.13;;
2011;SDS011;1009;51.436;6.972;2023-01-10T05:04:45;14.50;;;4.80;;
2011;SDS011;1009;51.436;6.972;2023-01-10T05:07:12;28.57;;;6.17;;
2011;SDS011;1009;51.436;6.972;2023-01-10T05:09:39;18.30;;;4.70;;
2011;SDS011;1009;51.436;6.972;2023-01-10T05:12:06;13.47;;;5.33;;
2011;SDS011;1009;51.436;6.972;2023-01-10T05:14:33;10.77;;;4.80;;
2011;SDS011;1009;51.436;6.972;2023-01-10T05:17:01;14.40;;;5.97;;
2011;SDS011;1009;51.436;6.972;2023-01-10T05:19:28;12.13;;;4.80;;
2011;SDS011;1009;51.436;6.972;2023-01-10T05:21:55;17.47;;;5.40;;
2011;SDS011;1009;51.436;6.972;2023-01-10T05:24:22;11.73;;;5.00;;
2011;SDS011;1009;51.436;6.972;2023-01-10T05:26:48;17.60;;;4.60;;
2011;SDS011;1009;51.436;6.972;2023-01-10T05:29:15;11.17;;;4.47;;
2011;SDS011;1009;51.436;6.972;2023-01-10T05:31:42;13.70;;;4.50;;
2011;SDS011;1009;51.436;6.972;2023-01-10T05:34:11;12.87;;;4.53;;
2011;SDS011;1009;51.436;6.972;2023-01-10T05:36:38;17.60;;;4.50;;
2011;SDS011;1009;51.436;6.972;2023-01-10T05:39:05;14.30;;;4.77;;
2011;SDS011;1009;51.436;6.972;2023-01-10T05:41:32;16.20;;;5.90;;
2011;SDS011;1009;51.436;6.972;2023-01-10T05:43:59;11.13;;;5.00;;
2011;SDS011;1009;51.436;6.972;2023-01-10T05:46:25;20.83;;;4.77;;
2011;SDS011;1009;51.436;6.972;2023-01-10T05:48:52;14.20;;;5.40;;
2011;SDS011;1009;51.436;6.972;2023-01-10T05:51:23;13.70;;;5.30;;
2011;SDS011;1009;51.436;6.972;2023-01-10T05:53:49;13.97;;;5.83;;
2011;SDS011;1009;51.436;6.972;2023-01-10T05:56:16;16.80;;;5.13;;
2011;SDS011;1009;51.436;6.972;2023-01-10T05:58:43;20.90;;;5.47;;
2011;SDS011;1009;51.436;6.972;2023-01-10T06:01:10;15.77;;;5.90;;
2011;SDS011;1009;51.436;6.972;2023-01-10T06:03:37;13.17;;;5.40;;
2011;SDS011;1009;51.436;6.972;2023-01-10T06:06:04;13.50;;;5.53;;
2011;SDS011;1009;51.436;6.972;2023-01-10T06:08:33;18.80;;;6.03;;
2011;SDS011;1009;51.436;6.972;2023-01-10T06:11:01;18.53;;;5.00;;
2011;SDS011;1009;51.436;6.972;2023-01-10T06:13:27;17.27;;;5.13;;
2011;SDS011;1009;51.436;6.972;2023-01-10T06:15:54;20.53;;;4.93;;
2011;SDS011;1009;51.436;6.972;2023-01-10T06:18:21;15.77;;;6.07;;
2011;SDS011;1009;51.436;6.972;2023-01-10T06:20:47;17.67;;;5.20;;
2011;SDS011;1009;51.436;6.972;2023-01-10T06:23:15;14.53;;;5.57;;
2011;SDS011;1009;51.436;6.972;2023-01-10T06:25:43;13.57;;;4.93;;
2011;SDS011;1009;51.436;6.972;2023-01-10T06:28:11;19.47;;;5.80;;
2011;SDS011;1009;51.436;6.972;2023-01-10T06:30:39;14.07;;;5.97;;
2011;SDS011;1009;51.436;6.972;2023-01-10T06:33:08;19.13;;;5.17;;
2011;SDS011;1009;51.436;6.972;2023-01-10T06:35:39;19.20;;;6.80;;
2011;SDS011;1009;51.436;6.972;2023-01-10T06:38:05;19.30;;;7.10;;
2011;SDS011;1009;51.436;6.972;2023-01-10T06:40:32;24.77;;;7.50;;
2011;SDS011;1009;51.436;6.972;2023-01-10T06:43:00;26.00;;;8.70;;
2011;SDS011;1009;51.436;6.972;2023-01-10T06:45:27;25.97;;;10.73;;
2011;SDS011;1009;51.436;6.972;2023-01-10T06:47:54;24.23;;;13.20;;
2011;SDS011;1009;51.436;6.972;2023-01-10T06:50:21;35.00;;;15.57;;
2011;SDS011;1009;51.436;6.972;2023-01-10T06:52:53;35.43;;;19.03;;
2011;SDS011;1009;51.436;6.972;2023-01-10T06:55:20;36.87;;;23.00;;
2011;SDS011;1009;51.436;6.972;2023-01-10T06:57:48;41.70;;;26.47;;
2011;SDS011;1009;51.436;6.972;2023-01-10T07:00:21;49.00;;;29.33;;
2011;SDS011;1009;51.436;6.972;2023-01-10T07:02:48;50.23;;;30.37;;
2011;SDS011;1009;51.436;6.972;2023-01-10T07:05:16;42.57;;;31.03;;
2011;SDS011;1009;51.436;6.972;2023-01-10T07:07:43;43.87;;;33.40;;
2011;SDS011;1009;51.436;6.972;2023-01-10T07:10:10;43.23;;;32.87;;
2011;SDS011;1009;51.436;6.972;2023-01-10T07:12:37;44.90;;;29.80;;
2011;SDS011;1009;51.436;6.972;2023-01-10T07:15:04;33.90;;;22.90;;
2011;SDS011;1009;51.436;6.972;2023-01-10T07:17:32;34.43;;;20.07;;
2011;SDS011;1009;51.436;6.972;2023-01-10T07:19:59;30.93;;;17.23;;
2011;SDS011;1009;51.436;6.972;2023-01-10T07:22:26;32.43;;;17.40;;
2011;SDS011;1009;51.436;6.972;2023-01-10T07:24:52;33.90;;;17.30;;
2011;SDS011;1009;51.436;6.972;2023-01-10T07:27:19;29.97;;;15.70;;
2011;SDS011;1009;51.436;6.972;2023-01-10T07:29:46;24.00;;;15.20;;
2011;SDS011;1009;51.436;6.972;2023-01-10T07:32:12;28.47;;;13.90;;
2011;SDS011;1009;51.436;6.972;2023-01-10T07:34:40;38.27;;;15.40;;
2011;SDS011;1009;51.436;6.972;2023-01-10T07:37:07;34.03;;;17.03;;
2011;SDS011;1009;51.436;6.972;2023-01-10T07:39:34;39.43;;;16.97;;
2011;SDS011;1009;51.436;6.972;2023-01-10T07:42:01;28.30;;;16.63;;
2011;SDS011;1009;51.436;6.972;2023-01-10T07:44:28;33.03;;;14.47;;
2011;SDS011;1009;51.436;6.972;2023-01-10T07:46:54;32.63;;;13.60;;
2011;SDS011;1009;51.436;6.972;2023-01-10T07:49:21;28.50;;;10.70;;
2011;SDS011;1009;51.436;6.972;2023-01-10T07:51:49;24.93;;;11.33;;
2011;SDS011;1009;51.436;6.972;2023-01-10T07:54:16;25.67;;;9.90;;
2011;SDS011;1009;51.436;6.972;2023-01-10T07:56:42;24.67;;;8.00;;
2011;SDS011;1009;51.436;6.972;2023-01-10T07:59:11;21.77;;;7.43;;
2011;SDS011;1009;51.436;6.972;2023-01-10T08:01:38;24.43;;;7.37;;
2011;SDS011;1009;51.436;6.972;2023-01-10T08:04:05;25.70;;;7.70;;
2011;SDS011;1009;51.436;6.972;2023-01-10T08:06:31;17.70;;;6.20;;
2011;SDS011;1009;51.436;6.972;2023-01-10T08:08:59;25.37;;;6.97;;
2011;SDS011;1009;51.436;6.972;2023-01-10T08:11:27;20.07;;;5.73;;
2011;SDS011;1009;51.436;6.972;2023-01-10T08:14:00;17.67;;;5.63;;
2011;SDS011;1009;51.436;6.972;2023-01-10T08:16:27;21.63;;;6.73;;
2011;SDS011;1009;51.436;6.972;2023-01-10T08:18:54;23.53;;;7.00;;
2011;SDS011;1009;51.436;6.972;2023-01-10T08:21:20;20.77;;;6.67;;
2011;SDS011;1009;51.436;6.972;2023-01-10T08:23:48;32.07;;;8.77;;
2011;SDS011;1009;51.436;6.972;2023-01-10T08:26:17;24.37;;;6.70;;
2011;SDS011;1009;51.436;6.972;2023-01-10T08:28:46;23.10;;;6.20;;
2011;SDS011;1009;51.436;6.972;2023-01-10T08:31:13;24.90;;;7.47;;
2011;SDS011;1009;51.436;6.972;2023-01-10T08:33:40;24.60;;;6.43;;
2011;SDS011;1009;51.436;6.972;2023-01-10T08:36:13;17.80;;;6.80;;
2011;SDS011;1009;51.436;6.972;2023-01-10T08:38:41;26.47;;;8.10;;
2011;SDS011;1009;51.436;6.972;2023-01-10T08:41:07;29.73;;;7.40;;
2011;SDS011;1009;51.436;6.972;2023-01-10T08:43:35;17.13;;;6.53;;
2011;SDS011;1009;51.436;6.972;2023-01-10T08:46:02;23.53;;;7.87;;
2011;SDS011;1009;51.436;6.972;2023-01-10T08:48:29;20.90;;;6.80;;
2011;SDS011;1009;51.436;6.972;2023-01-10T08:50:56;25.43;;;6.30;;
2011;SDS011;1009;51.436;6.972;2023-01-10T08:53:23;23.37;;;6.73;;
2011;SDS011;1009;51.436;6.972;2023-01-10T08:55:55;24.00;;;6.60;;
2011;SDS011;1009;51.436;6.972;2023-01-10T08:58:21;20.07;;;6.10;;
2011;SDS011;1009;51.436;6.972;2023-01-10T09:00:50;25.53;;;6.30;;
2011;SDS011;1009;51.436;6.972;2023-01-10T09:03:16;21.43;;;6.43;;
2011;SDS011;1009;51.436;6.972;2023-01-10T09:05:44;19.23;;;5.73;;
2011;SDS011;1009;51.436;6.972;2023-01-10T09:08:10;20.43;;;6.77;;
2011;SDS011;1009;51.436;6.972;2023-01-10T09:10:37;24.10;;;6.87;;
2011;SDS011;1009;51.436;6.972;2023-01-10T09:13:04;22.30;;;6.93;;
2011;SDS011;1009;51.436;6.972;2023-01-10T09:15:31;22.23;;;6.40;;
2011;SDS011;1009;51.436;6.972;2023-01-10T09:18:01;21.57;;;6.60;;
2011;SDS011;1009;51.436;6.972;2023-01-10T09:20:29;19.33;;;6.40;;
2011;SDS011;1009;51.436;6.972;2023-01-10T09:22:56;25.20;;;6.43;;
2011;SDS011;1009;51.436;6.972;2023-01-10T09:25:24;17.23;;;7.23;;
2011;SDS011;1009;51.436;6.972;2023-01-10T09:27:55;18.83;;;7.33;;
2011;SDS011;1009;51.436;6.972;2023-01-10T09:30:22;22.87;;;6.40;;
2011;SDS011;1009;51.436;6.972;2023-01-10T09:32:50;22.77;;;8.10;;
2011;SDS011;1009;51.436;6.972;2023-01-10T09:35:18;20.90;;;7.20;;
2011;SDS011;1009;51.436;6.972;2023-01-10T09:37:45;24.23;;;7.00;;
2011;SDS011;1009;51.436;6.972;2023-01-10T09:40:12;31.67;;;6.77;;
2011;SDS011;1009;51.436;6.972;2023-01-10T09:42:50;24.17;;;6.20;;
2011;SDS011;1009;51.436;6.972;2023-01-10T09:45:27;22.53;;;6.33;;
2011;SDS011;1009;51.436;6.972;2023-01-10T09:48:02;20.90;;;6.50;;
2011;SDS011;1009;51.436;6.972;2023-01-10T09:50:36;25.33;;;6.00;;
2011;SDS011;1009;51.436;6.972;2023-01-10T09:53:11;22.67;;;5.83;;
2011;SDS011;1009;51.436;6.972;2023-01-10T09:55:42;24.70;;;7.00;;
2011;SDS011;1009;51.436;6.972;2023-01-10T09:58:14;18.27;;;6.17;;
2011;SDS011;1009;51.436;6.972;2023-01-10T10:00:46;23.03;;;5.63;;
2011;SDS011;1009;51.436;6.972;2023-01-10T10:03:19;19.37;;;6.13;;
2011;SDS011;1009;51.436;6.972;2023-01-10T10:05:52;26.20;;;6.50;;
2011;SDS011;1009;51.436;6.972;2023-01-10T10:08:18;20.57;;;6.60;;
2011;SDS011;1009;51.436;6.972;2023-01-10T10:10:48;16.03;;;5.10;;
2011;SDS011;1009;51.436;6.972;2023-01-10T10:13:29;15.60;;;5.73;;
2011;SDS011;1009;51.436;6.972;2023-01-10T10:16:06;19.13;;;5.70;;
2011;SDS011;1009;51.436;6.972;2023-01-10T10:18:40;16.30;;;5.93;;
2011;SDS011;1009;51.436;6.972;2023-01-10T10:21:17;18.93;;;6.03;;
2011;SDS011;1009;51.436;6.972;2023-01-10T10:23:55;17.87;;;5.60;;
2011;SDS011;1009;51.436;6.972;2023-01-10T10:26:34;17.83;;;5.70;;
2011;SDS011;1009;51.436;6.972;2023-01-10T10:29:18;17.93;;;6.10;;
2011;SDS011;1009;51.436;6.972;2023-01-10T10:32:00;16.07;;;4.80;;
2011;SDS011;1009;51.436;6.972;2023-01-10T10:34:39;19.70;;;5.63;;
2011;SDS011;1009;51.436;6.972;2023-01-10T10:37:18;21.90;;;5.67;;
2011;SDS011;1009;51.436;6.972;2023-01-10T10:39:49;18.10;;;4.70;;
2011;SDS011;1009;51.436;6.972;2023-01-10T10:42:19;16.90;;;5.13;;
2011;SDS011;1009;51.436;6.972;2023-01-10T10:44:46;23.17;;;5.37;;
2011;SDS011;1009;51.436;6.972;2023-01-10T10:47:18;18.87;;;5.83;;
2011;SDS011;1009;51.436;6.972;2023-01-10T10:49:47;17.80;;;5.00;;
2011;SDS011;1009;51.436;6.972;2023-01-10T10:52:21;18.37;;;6.30;;
2011;SDS011;1009;51.436;6.972;2023-01-10T10:54:51;22.47;;;5.90;;
2011;SDS011;1009;51.436;6.972;2023-01-10T10:57:19;18.10;;;5.27;;
2011;SDS011;1009;51.436;6.972;2023-01-10T10:59:48;14.00;;;5.40;;
2011;SDS011;1009;51.436;6.972;2023-01-10T11:02:20;18.40;;;5.10;;
2011;SDS011;1009;51.436;6.972;2023-01-10T11:04:49;13.93;;;5.13;;
2011;SDS011;1009;51.436;6.972;2023-01-10T11:07:19;20.13;;;5.17;;
2011;SDS011;1009;51.436;6.972;2023-01-10T11:09:47;14.00;;;4.53;;
2011;SDS011;1009;51.436;6.972;2023-01-10T11:12:18;20.40;;;5.13;;
2011;SDS011;1009;51.436;6.972;2023-01-10T11:14:46;16.83;;;5.10;;
2011;SDS011;1009;51.436;6.972;2023-01-10T11:17:19;20.83;;;5.90;;
2011;SDS011;1009;51.436;6.972;2023-01-10T11:19:54;21.77;;;5.17;;
2011;SDS011;1009;51.436;6.972;2023-01-10T11:22:28;17.93;;;5.10;;
2011;SDS011;1009;51.436;6.972;2023-01-10T11:24:57;20.23;;;4.73;;
2011;SDS011;1009;51.436;6.972;2023-01-10T11:27:25;18.70;;;5.07;;
2011;SDS011;1009;51.436;6.972;2023-01-10T11:29:55;21.63;;;5.47;;
2011;SDS011;1009;51.436;6.972;2023-01-10T11:32:29;14.40;;;4.73;;
2011;SDS011;1009;51.436;6.972;2023-01-10T11:34:58;15.63;;;4.63;;
2011;SDS011;1009;51.436;6.972;2023-01-10T11:37:29;15.63;;;4.93;;
2011;SDS011;1009;51.436;6.972;2023-01-10T11:40:12;22.20;;;5.00;;
2011;SDS011;1009;51.436;6.972;2023-01-10T11:42:44;19.17;;;4.80;;
2011;SDS011;1009;51.436;6.972;2023-01-10T11:45:18;16.97;;;4.50;;
2011;SDS011;1009;51.436;6.972;2023-01-10T11:47:52;11.90;;;4.63;;
2011;SDS011;1009;51.436;6.972;2023-01-10T11:50:23;15.60;;;5.13;;
2011;SDS011;1009;51.436;6.972;2023-01-10T11:52:53;18.50;;;5.10;;
2011;SDS011;1009;51.436;6.972;2023-01-10T11:55:21;14.90;;;4.60;;
2011;SDS011;1009;51.436;6.972;2023-01-10T11:57:54;25.67;;;5.70;;
2011;SDS011;1009;51.436;6.972;2023-01-10T12:00:29;21.73;;;4.67;;
2011;SDS011;1009;51.436;6.972;2023-01-10T12:02:59;21.53;;;5.63;;
2011;SDS011;1009;51.436;6.972;2023-01-10T12:05:26;17.27;;;5.00;;
2011;SDS011;1009;51.436;6.972;2023-01-10T12:07:58;18.90;;;5.40;;
2011;SDS011;1009;51.436;6.972;2023-01-10T12:10:41;17.03;;;4.70;;
2011;SDS011;1009;51.436;6.972;2023-01-10T12:13:23;18.80;;;4.73;;
2011;SDS011;1009;51.436;6.972;2023-01-10T12:15:49;20.20;;;4.57;;
2011;SDS011;1009;51.436;6.972;2023-01-10T12:18:16;18.93;;;5.30;;
2011;SDS011;1009;51.436;6.972;2023-01-10T12:20:45;24.90;;;5.57;;
2011;SDS011;1009;51.436;6.972;2023-01-10T12:23:16;12.77;;;4.40;;
2011;SDS011;1009;51.436;6.972;2023-01-10T12:25:45;20.83;;;5.30;;
2011;SDS011;1009;51.436;6.972;2023-01-10T12:28:13;21.93;;;5.77;;
2011;SDS011;1009;51.436;6.972;2023-01-10T12:30:43;16.70;;;5.10;;
2011;SDS011;1009;51.436;6.972;2023-01-10T12:33:14;19.73;;;5.20;;
2011;SDS011;1009;51.436;6.972;2023-01-10T12:35:44;20.13;;;4.90;;
2011;SDS011;1009;51.436;6.972;2023-01-10T12:38:21;18.23;;;4.17;;
2011;SDS011;1009;51.436;6.972;2023-01-10T12:41:14;20.53;;;4.80;;
2011;SDS011;1009;51.436;6.972;2023-01-10T12:44:07;18.60;;;4.43;;
2011;SDS011;1009;51.436;6.972;2023-01-10T12:46:39;14.00;;;4.13;;
2011;SDS011;1009;51.436;6.972;2023-01-10T12:49:15;22.03;;;5.57;;
2011;SDS011;1009;51.436;6.972;2023-01-10T12:51:46;24.87;;;7.20;;
2011;SDS011;1009;51.436;6.972;2023-01-10T12:54:17;17.80;;;4.90;;
2011;SDS011;1009;51.436;6.972;2023-01-10T12:56:46;16.83;;;4.20;;
2011;SDS011;1009;51.436;6.972;2023-01-10T12:59:16;18.47;;;5.10;;
2011;SDS011;1009;51.436;6.972;2023-01-10T13:01:47;18.23;;;4.13;;
2011;SDS011;1009;51.436;6.972;2023-01-10T13:04:24;15.80;;;3.80;;
2011;SDS011;1009;51.436;6.972;2023-01-10T13:06:52;20.93;;;5.73;;
2011;SDS011;1009;51.436;6.972;2023-01-10T13:09:21;15.90;;;4.40;;
2011;SDS011;1009;51.436;6.972;2023-01-10T13:11:52;20.97;;;5.53;;
2011;SDS011;1009;51.436;6.972;2023-01-10T13:14:24;20.37;;;3.90;;
2011;SDS011;1009;51.436;6.972;2023-01-10T13:17:01;20.80;;;5.30;;
2011;SDS011;1009;51.436;6.972;2023-01-10T13:19:36;10.90;;;3.40;;
2011;SDS011;1009;51.436;6.972;2023-01-10T13:22:11;14.30;;;4.13;;
2011;SDS011;1009;51.436;6.972;2023-01-10T13:24:54;13.00;;;3.60;;
2011;SDS011;1009;51.436;6.972;2023-01-10T13:27:23;21.10;;;4.20;;
2011;SDS011;1009;51.436;6.972;2023-01-10T13:29:56;17.30;;;4.30;;
2011;SDS011;1009;51.436;6.972;2023-01-10T13:32:24;15.40;;;3.50;;
2011;SDS011;1009;51.436;6.972;2023-01-10T13:34:53;17.07;;;4.13;;
2011;SDS011;1009;51.436;6.972;2023-01-10T13:37:21;11.73;;;3.53;;
2011;SDS011;1009;51.436;6.972;2023-01-10T13:39:50;14.27;;;3.83;;
2011;SDS011;1009;51.436;6.972;2023-01-10T13:42:25;14.73;;;3.80;;
2011;SDS011;1009;51.436;6.972;2023-01-10T13:45:13;12.50;;;3.80;;
2011;SDS011;1009;51.436;6.972;2023-01-10T13:47:57;15.43;;;4.40;;
2011;SDS011;1009;51.436;6.972;2023-01-10T13:50:48;11.40;;;4.00;;
2011;SDS011;1009;51.436;6.972;2023-01-10T13:56:35;15.93;;;4.23;;
2011;SDS011;1009;51.436;6.972;2023-01-10T13:59:09;13.60;;;3.73;;
2011;SDS011;1009;51.436;6.972;2023-01-10T14:01:56;11.90;;;4.10;;
2011;SDS011;1009;51.436;6.972;2023-01-10T14:04:44;14.97;;;4.10;;
2011;SDS011;1009;51.436;6.972;2023-01-10T14:07:16;13.43;;;3.40;;
2011;SDS011;1009;51.436;6.972;2023-01-10T14:09:48;9.20;;;2.97;;
2011;SDS011;1009;51.436;6.972;2023-01-10T14:12:18;15.00;;;4.10;;
2011;SDS011;1009;51.436;6.972;2023-01-10T14:14:54;10.50;;;3.60;;
2011;SDS011;1009;51.436;6.972;2023-01-10T14:17:24;10.50;;;3.73;;
2011;SDS011;1009;51.436;6.972;2023-01-10T14:22:57;13.90;;;3.63;;
2011;SDS011;1009;51.436;6.972;2023-01-10T14:25:33;13.80;;;4.80;;
2011;SDS011;1009;51.436;6.972;2023-01-10T14:28:01;9.00;;;3.60;;
2011;SDS011;1009;51.436;6.972;2023-01-10T14:30:31;14.50;;;3.57;;
2011;SDS011;1009;51.436;6.972;2023-01-10T14:33:00;11.10;;;3.00;;
2011;SDS011;1009;51.436;6.972;2023-01-10T14:35:32;12.53;;;3.87;;
2011;SDS011;1009;51.436;6.972;2023-01-10T14:38:02;18.17;;;3.13;;
2011;SDS011;1009;51.436;6.972;2023-01-10T14:40:33;10.40;;;3.70;;
2011;SDS011;1009;51.436;6.972;2023-01-10T14:43:05;9.50;;;3.40;;
2011;SDS011;1009;51.436;6.972;2023-01-10T14:45:44;8.23;;;3.50;;
2011;SDS011;1009;51.436;6.972;2023-01-10T14:48:18;16.93;;;3.60;;
2011;SDS011;1009;51.436;6.972;2023-01-10T14:50:48;16.00;;;5.20;;
2011;SDS011;1009;51.436;6.972;2023-01-10T14:53:23;11.17;;;3.50;;
2011;SDS011;1009;51.436;6.972;2023-01-10T14:55:51;7.20;;;3.10;;
2011;SDS011;1009;51.436;6.972;2023-01-10T14:58:18;19.77;;;3.60;;
2011;SDS011;1009;51.436;6.972;2023-01-10T15:00:48;11.73;;;4.17;;
2011;SDS011;1009;51.436;6.972;2023-01-10T15:03:16;10.20;;;3.33;;
2011;SDS011;1009;51.436;6.972;2023-01-10T15:05:45;12.10;;;3.50;;
2011;SDS011;1009;51.436;6.972;2023-01-10T15:08:14;12.77;;;3.87;;
2011;SDS011;1009;51.436;6.972;2023-01-10T15:10:45;8.70;;;3.13;;
2011;SDS011;1009;51.436;6.972;2023-01-10T15:13:13;13.73;;;3.47;;
2011;SDS011;1009;51.436;6.972;2023-01-10T15:15:42;11.90;;;3.40;;
2011;SDS011;1009;51.436;6.972;2023-01-10T15:18:27;10.93;;;2.80;;
2011;SDS011;1009;51.436;6.972;2023-01-10T15:20:58;15.00;;;3.17;;
2011;SDS011;1009;51.436;6.972;2023-01-10T15:23:31;12.33;;;3.53;;
2011;SDS011;1009;51.436;6.972;2023-01-10T15:26:00;13.13;;;4.07;;
2011;SDS011;1009;51.436;6.972;2023-01-10T15:28:29;10.33;;;4.07;;
2011;SDS011;1009;51.436;6.972;2023-01-10T15:30:55;10.80;;;3.33;;
2011;SDS011;1009;51.436;6.972;2023-01-10T15:33:25;9.40;;;2.93;;